sensor_id;sensor_type;location;lat;lon;timestamp;P1;durP1;ratioP1;P2;durP2;ratioP2
36391;SDS011;22639;42.690;23.356;2022-09-03T00:07:48;13.20;;;8.90;;
36391;SDS011;22639;42.690;23.356;2022-09-03T00:10:37;11.55;;;8.32;;
36391;SDS011;22639;42.690;23.356;2022-09-03T00:13:32;10.10;;;7.93;;
36391;SDS011;22639;42.690;23.356;2022-09-03T00:15:59;9.05;;;7.65;;
36391;SDS011;22639;42.690;23.356;2022-09-03T00:18:28;10.38;;;7.75;;
36391;SDS011;22639;42.690;23.356;2022-09-03T00:21:00;9.32;;;8.27;;
36391;SDS011;22639;42.690;23.356;2022-09-03T00:23:32;11.85;;;8.93;;
36391;SDS011;22639;42.690;23.356;2022-09-03T00:31:20;9.30;;;6.93;;
36391;SDS011;22639;42.690;23.356;2022-09-03T00:33:51;9.05;;;7.90;;
36391;SDS011;22639;42.690;23.356;2022-09-03T00:36:28;11.30;;;7.88;;
36391;SDS011;22639;42.690;23.356;2022-09-03T00:38:59;8.50;;;7.60;;
36391;SDS011;22639;42.690;23.356;2022-09-03T00:46:50;9.55;;;7.72;;
36391;SDS011;22639;42.690;23.356;2022-09-03T00:54:53;7.78;;;6.80;;
36391;SDS011;22639;42.690;23.356;2022-09-03T01:00:29;7.97;;;6.38;;
36391;SDS011;22639;42.690;23.356;2022-09-03T01:10:31;8.77;;;7.32;;
36391;SDS011;22639;42.690;23.356;2022-09-03T01:13:19;9.18;;;7.30;;
36391;SDS011;22639;42.690;23.356;2022-09-03T01:15:58;8.65;;;7.68;;
36391;SDS011;22639;42.690;23.356;2022-09-03T01:29:36;10.85;;;7.55;;
36391;SDS011;22639;42.690;23.356;2022-09-03T01:32:26;7.90;;;6.97;;
36391;SDS011;22639;42.690;23.356;2022-09-03T01:49:33;10.52;;;7.75;;
36391;SDS011;22639;42.690;23.356;2022-09-03T01:52:09;9.45;;;7.75;;
36391;SDS011;22639;42.690;23.356;2022-09-03T02:00:23;10.80;;;7.80;;
36391;SDS011;22639;42.690;23.356;2022-09-03T02:02:52;11.13;;;8.23;;
36391;SDS011;22639;42.690;23.356;2022-09-03T02:05:25;10.90;;;8.40;;
36391;SDS011;22639;42.690;23.356;2022-09-03T02:07:58;10.65;;;7.65;;
36391;SDS011;22639;42.690;23.356;2022-09-03T02:10:44;9.75;;;7.85;;
36391;SDS011;22639;42.690;23.356;2022-09-03T02:13:27;11.20;;;8.27;;
36391;SDS011;22639;42.690;23.356;2022-09-03T02:16:01;9.68;;;8.27;;
36391;SDS011;22639;42.690;23.356;2022-09-03T02:18:37;10.18;;;7.93;;
36391;SDS011;22639;42.690;23.356;2022-09-03T02:21:07;10.80;;;8.43;;
36391;SDS011;22639;42.690;23.356;2022-09-03T02:23:34;8.48;;;7.57;;
36391;SDS011;22639;42.690;23.356;2022-09-03T02:26:04;10.40;;;8.02;;
36391;SDS011;22639;42.690;23.356;2022-09-03T02:28:32;12.10;;;8.63;;
36391;SDS011;22639;42.690;23.356;2022-09-03T02:30:58;11.40;;;8.75;;
36391;SDS011;22639;42.690;23.356;2022-09-03T02:33:24;9.38;;;8.13;;
36391;SDS011;22639;42.690;23.356;2022-09-03T02:35:50;12.90;;;8.32;;
36391;SDS011;22639;42.690;23.356;2022-09-03T02:38:17;10.50;;;8.20;;
36391;SDS011;22639;42.690;23.356;2022-09-03T02:40:46;10.48;;;8.98;;
36391;SDS011;22639;42.690;23.356;2022-09-03T02:43:16;10.20;;;8.20;;
36391;SDS011;22639;42.690;23.356;2022-09-03T02:45:46;8.45;;;7.30;;
36391;SDS011;22639;42.690;23.356;2022-09-03T02:48:16;10.38;;;8.27;;
36391;SDS011;22639;42.690;23.356;2022-09-03T02:50:46;9.38;;;8.10;;
36391;SDS011;22639;42.690;23.356;2022-09-03T02:53:13;11.23;;;8.32;;
36391;SDS011;22639;42.690;23.356;2022-09-03T02:55:39;12.20;;;7.97;;
36391;SDS011;22639;42.690;23.356;2022-09-03T02:58:05;9.05;;;7.47;;
36391;SDS011;22639;42.690;23.356;2022-09-03T03:00:32;9.40;;;8.13;;
36391;SDS011;22639;42.690;23.356;2022-09-03T03:02:58;11.48;;;8.93;;
36391;SDS011;22639;42.690;23.356;2022-09-03T03:05:25;11.60;;;8.63;;
36391;SDS011;22639;42.690;23.356;2022-09-03T03:08:00;10.88;;;9.30;;
36391;SDS011;22639;42.690;23.356;2022-09-03T03:10:25;9.95;;;8.77;;
36391;SDS011;22639;42.690;23.356;2022-09-03T03:12:51;11.90;;;8.48;;
36391;SDS011;22639;42.690;23.356;2022-09-03T03:15:16;11.13;;;8.90;;
36391;SDS011;22639;42.690;23.356;2022-09-03T03:17:42;15.23;;;9.65;;
36391;SDS011;22639;42.690;23.356;2022-09-03T03:20:07;9.35;;;8.23;;
36391;SDS011;22639;42.690;23.356;2022-09-03T03:22:33;13.13;;;9.25;;
36391;SDS011;22639;42.690;23.356;2022-09-03T03:24:59;10.77;;;8.02;;
36391;SDS011;22639;42.690;23.356;2022-09-03T03:27:25;11.20;;;8.65;;
36391;SDS011;22639;42.690;23.356;2022-09-03T03:29:51;10.43;;;8.18;;
36391;SDS011;22639;42.690;23.356;2022-09-03T03:32:18;11.52;;;8.88;;
36391;SDS011;22639;42.690;23.356;2022-09-03T03:34:44;13.55;;;9.38;;
36391;SDS011;22639;42.690;23.356;2022-09-03T03:37:09;11.30;;;9.20;;
36391;SDS011;22639;42.690;23.356;2022-09-03T03:39:35;10.60;;;7.82;;
36391;SDS011;22639;42.690;23.356;2022-09-03T03:42:00;11.73;;;9.02;;
36391;SDS011;22639;42.690;23.356;2022-09-03T03:44:25;10.88;;;8.70;;
36391;SDS011;22639;42.690;23.356;2022-09-03T03:46:51;12.23;;;9.85;;
36391;SDS011;22639;42.690;23.356;2022-09-03T03:49:16;11.32;;;8.70;;
36391;SDS011;22639;42.690;23.356;2022-09-03T03:51:42;11.65;;;8.38;;
36391;SDS011;22639;42.690;23.356;2022-09-03T03:54:07;10.02;;;8.18;;
36391;SDS011;22639;42.690;23.356;2022-09-03T03:56:33;12.70;;;9.35;;
36391;SDS011;22639;42.690;23.356;2022-09-03T03:58:59;10.85;;;9.40;;
36391;SDS011;22639;42.690;23.356;2022-09-03T04:01:24;12.90;;;8.00;;
36391;SDS011;22639;42.690;23.356;2022-09-03T04:03:53;10.15;;;8.65;;
36391;SDS011;22639;42.690;23.356;2022-09-03T04:06:20;11.93;;;8.77;;
36391;SDS011;22639;42.690;23.356;2022-09-03T04:08:46;11.40;;;8.35;;
36391;SDS011;22639;42.690;23.356;2022-09-03T04:11:13;8.82;;;7.90;;
36391;SDS011;22639;42.690;23.356;2022-09-03T04:13:41;10.85;;;8.65;;
36391;SDS011;22639;42.690;23.356;2022-09-03T04:16:11;12.27;;;9.50;;
36391;SDS011;22639;42.690;23.356;2022-09-03T04:18:43;9.68;;;8.15;;
36391;SDS011;22639;42.690;23.356;2022-09-03T04:21:12;10.45;;;9.05;;
36391;SDS011;22639;42.690;23.356;2022-09-03T04:23:40;11.23;;;8.18;;
36391;SDS011;22639;42.690;23.356;2022-09-03T04:26:08;11.27;;;8.52;;
36391;SDS011;22639;42.690;23.356;2022-09-03T04:28:35;11.27;;;9.02;;
36391;SDS011;22639;42.690;23.356;2022-09-03T04:31:02;9.68;;;8.35;;
36391;SDS011;22639;42.690;23.356;2022-09-03T04:33:32;9.98;;;8.55;;
36391;SDS011;22639;42.690;23.356;2022-09-03T04:36:02;11.93;;;9.10;;
36391;SDS011;22639;42.690;23.356;2022-09-03T04:38:35;10.43;;;7.78;;
36391;SDS011;22639;42.690;23.356;2022-09-03T04:41:02;12.02;;;8.48;;
36391;SDS011;22639;42.690;23.356;2022-09-03T04:43:29;11.43;;;8.65;;
36391;SDS011;22639;42.690;23.356;2022-09-03T04:45:55;11.23;;;8.60;;
36391;SDS011;22639;42.690;23.356;2022-09-03T04:48:22;11.32;;;9.32;;
36391;SDS011;22639;42.690;23.356;2022-09-03T04:50:48;13.35;;;9.63;;
36391;SDS011;22639;42.690;23.356;2022-09-03T04:53:13;12.02;;;9.63;;
36391;SDS011;22639;42.690;23.356;2022-09-03T04:55:38;9.82;;;8.02;;
36391;SDS011;22639;42.690;23.356;2022-09-03T04:58:04;9.27;;;8.35;;
36391;SDS011;22639;42.690;23.356;2022-09-03T05:00:31;11.23;;;8.45;;
36391;SDS011;22639;42.690;23.356;2022-09-03T05:02:59;13.30;;;8.73;;
36391;SDS011;22639;42.690;23.356;2022-09-03T05:05:26;10.48;;;8.55;;
36391;SDS011;22639;42.690;23.356;2022-09-03T05:07:51;12.15;;;8.50;;
36391;SDS011;22639;42.690;23.356;2022-09-03T05:10:17;13.15;;;8.13;;
36391;SDS011;22639;42.690;23.356;2022-09-03T05:12:47;10.25;;;7.72;;
36391;SDS011;22639;42.690;23.356;2022-09-03T05:15:22;11.63;;;8.57;;
36391;SDS011;22639;42.690;23.356;2022-09-03T05:17:48;12.02;;;9.05;;
36391;SDS011;22639;42.690;23.356;2022-09-03T05:20:16;10.85;;;9.23;;
36391;SDS011;22639;42.690;23.356;2022-09-03T05:22:42;9.88;;;8.43;;
36391;SDS011;22639;42.690;23.356;2022-09-03T05:25:07;11.35;;;7.95;;
36391;SDS011;22639;42.690;23.356;2022-09-03T05:27:33;8.70;;;7.80;;
36391;SDS011;22639;42.690;23.356;2022-09-03T05:29:58;8.00;;;7.20;;
36391;SDS011;22639;42.690;23.356;2022-09-03T05:32:24;9.05;;;7.88;;
36391;SDS011;22639;42.690;23.356;2022-09-03T05:34:52;9.70;;;7.70;;
36391;SDS011;22639;42.690;23.356;2022-09-03T05:37:17;9.18;;;8.02;;
36391;SDS011;22639;42.690;23.356;2022-09-03T05:39:42;7.72;;;6.93;;
36391;SDS011;22639;42.690;23.356;2022-09-03T05:42:08;9.20;;;7.68;;
36391;SDS011;22639;42.690;23.356;2022-09-03T05:44:33;11.13;;;7.40;;
36391;SDS011;22639;42.690;23.356;2022-09-03T05:47:00;8.50;;;7.25;;
36391;SDS011;22639;42.690;23.356;2022-09-03T05:49:25;9.10;;;7.70;;
36391;SDS011;22639;42.690;23.356;2022-09-03T05:51:51;10.98;;;8.35;;
36391;SDS011;22639;42.690;23.356;2022-09-03T05:54:18;13.73;;;11.43;;
36391;SDS011;22639;42.690;23.356;2022-09-03T05:56:44;11.00;;;9.05;;
36391;SDS011;22639;42.690;23.356;2022-09-03T05:59:09;16.52;;;12.85;;
36391;SDS011;22639;42.690;23.356;2022-09-03T06:01:39;10.80;;;8.35;;
36391;SDS011;22639;42.690;23.356;2022-09-03T06:04:10;15.65;;;11.75;;
36391;SDS011;22639;42.690;23.356;2022-09-03T06:06:40;12.75;;;9.68;;
36391;SDS011;22639;42.690;23.356;2022-09-03T06:09:08;9.32;;;8.10;;
36391;SDS011;22639;42.690;23.356;2022-09-03T06:11:36;8.60;;;6.78;;
36391;SDS011;22639;42.690;23.356;2022-09-03T06:14:03;9.18;;;8.23;;
36391;SDS011;22639;42.690;23.356;2022-09-03T06:16:31;11.55;;;7.95;;
36391;SDS011;22639;42.690;23.356;2022-09-03T06:18:58;9.40;;;7.50;;
36391;SDS011;22639;42.690;23.356;2022-09-03T06:21:24;14.23;;;10.35;;
36391;SDS011;22639;42.690;23.356;2022-09-03T06:23:50;9.82;;;8.82;;
36391;SDS011;22639;42.690;23.356;2022-09-03T06:26:18;11.23;;;9.40;;
36391;SDS011;22639;42.690;23.356;2022-09-03T06:28:44;9.25;;;7.93;;
36391;SDS011;22639;42.690;23.356;2022-09-03T06:31:13;10.55;;;8.48;;
36391;SDS011;22639;42.690;23.356;2022-09-03T06:33:40;13.70;;;11.10;;
36391;SDS011;22639;42.690;23.356;2022-09-03T06:36:07;11.27;;;9.15;;
36391;SDS011;22639;42.690;23.356;2022-09-03T06:38:43;10.57;;;6.88;;
36391;SDS011;22639;42.690;23.356;2022-09-03T06:41:14;9.23;;;7.78;;
36391;SDS011;22639;42.690;23.356;2022-09-03T06:43:45;13.80;;;10.68;;
36391;SDS011;22639;42.690;23.356;2022-09-03T06:46:13;15.75;;;10.70;;
36391;SDS011;22639;42.690;23.356;2022-09-03T06:48:40;8.70;;;6.40;;
36391;SDS011;22639;42.690;23.356;2022-09-03T06:51:08;8.07;;;6.90;;
36391;SDS011;22639;42.690;23.356;2022-09-03T06:53:42;9.07;;;7.15;;
36391;SDS011;22639;42.690;23.356;2022-09-03T06:56:10;7.43;;;6.38;;
36391;SDS011;22639;42.690;23.356;2022-09-03T06:58:41;7.18;;;6.45;;
36391;SDS011;22639;42.690;23.356;2022-09-03T07:01:09;7.60;;;6.80;;
36391;SDS011;22639;42.690;23.356;2022-09-03T07:03:40;8.13;;;7.15;;
36391;SDS011;22639;42.690;23.356;2022-09-03T07:06:11;8.07;;;7.05;;
36391;SDS011;22639;42.690;23.356;2022-09-03T07:08:38;8.32;;;6.43;;
36391;SDS011;22639;42.690;23.356;2022-09-03T07:11:07;7.70;;;6.15;;
36391;SDS011;22639;42.690;23.356;2022-09-03T07:13:35;7.47;;;6.70;;
36391;SDS011;22639;42.690;23.356;2022-09-03T07:16:04;8.00;;;7.22;;
36391;SDS011;22639;42.690;23.356;2022-09-03T07:18:31;10.60;;;6.10;;
36391;SDS011;22639;42.690;23.356;2022-09-03T07:21:00;8.63;;;6.57;;
36391;SDS011;22639;42.690;23.356;2022-09-03T07:23:28;7.10;;;6.40;;
36391;SDS011;22639;42.690;23.356;2022-09-03T07:25:57;7.22;;;6.47;;
36391;SDS011;22639;42.690;23.356;2022-09-03T07:28:25;7.50;;;6.70;;
36391;SDS011;22639;42.690;23.356;2022-09-03T07:30:51;7.07;;;6.28;;
36391;SDS011;22639;42.690;23.356;2022-09-03T07:33:18;7.70;;;7.00;;
36391;SDS011;22639;42.690;23.356;2022-09-03T07:35:44;8.00;;;7.20;;
36391;SDS011;22639;42.690;23.356;2022-09-03T07:38:10;7.80;;;7.00;;
36391;SDS011;22639;42.690;23.356;2022-09-03T07:40:36;7.63;;;6.82;;
36391;SDS011;22639;42.690;23.356;2022-09-03T07:43:03;6.40;;;5.80;;
36391;SDS011;22639;42.690;23.356;2022-09-03T07:45:30;5.88;;;5.38;;
36391;SDS011;22639;42.690;23.356;2022-09-03T07:47:57;6.63;;;5.97;;
36391;SDS011;22639;42.690;23.356;2022-09-03T07:50:22;8.98;;;6.25;;
36391;SDS011;22639;42.690;23.356;2022-09-03T07:52:48;6.28;;;5.60;;
36391;SDS011;22639;42.690;23.356;2022-09-03T07:55:19;7.18;;;5.47;;
36391;SDS011;22639;42.690;23.356;2022-09-03T07:57:45;5.95;;;5.45;;
36391;SDS011;22639;42.690;23.356;2022-09-03T08:00:10;6.55;;;5.88;;
36391;SDS011;22639;42.690;23.356;2022-09-03T08:02:37;5.82;;;5.32;;
36391;SDS011;22639;42.690;23.356;2022-09-03T08:05:02;7.10;;;6.32;;
36391;SDS011;22639;42.690;23.356;2022-09-03T08:07:29;7.55;;;6.85;;
36391;SDS011;22639;42.690;23.356;2022-09-03T08:09:54;7.18;;;6.25;;
36391;SDS011;22639;42.690;23.356;2022-09-03T08:12:20;7.28;;;6.68;;
36391;SDS011;22639;42.690;23.356;2022-09-03T08:14:46;5.90;;;5.40;;
36391;SDS011;22639;42.690;23.356;2022-09-03T08:17:12;7.13;;;6.53;;
36391;SDS011;22639;42.690;23.356;2022-09-03T08:19:37;8.35;;;6.68;;
36391;SDS011;22639;42.690;23.356;2022-09-03T08:22:06;7.80;;;7.00;;
36391;SDS011;22639;42.690;23.356;2022-09-03T08:24:31;7.00;;;6.22;;
36391;SDS011;22639;42.690;23.356;2022-09-03T08:26:58;6.72;;;6.03;;
36391;SDS011;22639;42.690;23.356;2022-09-03T08:29:24;8.07;;;5.95;;
36391;SDS011;22639;42.690;23.356;2022-09-03T08:31:51;7.68;;;5.95;;
36391;SDS011;22639;42.690;23.356;2022-09-03T08:34:17;6.82;;;5.95;;
36391;SDS011;22639;42.690;23.356;2022-09-03T08:36:43;5.57;;;5.05;;
36391;SDS011;22639;42.690;23.356;2022-09-03T08:39:11;5.28;;;4.78;;
36391;SDS011;22639;42.690;23.356;2022-09-03T08:57:47;6.97;;;6.38;;
36391;SDS011;22639;42.690;23.356;2022-09-03T09:00:28;7.50;;;6.45;;
36391;SDS011;22639;42.690;23.356;2022-09-03T09:11:20;6.25;;;5.65;;
36391;SDS011;22639;42.690;23.356;2022-09-03T09:13:52;7.28;;;5.72;;
36391;SDS011;22639;42.690;23.356;2022-09-03T09:16:56;5.32;;;4.90;;
36391;SDS011;22639;42.690;23.356;2022-09-03T09:22:01;5.82;;;5.32;;
36391;SDS011;22639;42.690;23.356;2022-09-03T09:24:49;5.65;;;5.15;;
36391;SDS011;22639;42.690;23.356;2022-09-03T09:27:20;7.53;;;5.38;;
36391;SDS011;22639;42.690;23.356;2022-09-03T09:29:47;6.60;;;5.97;;
36391;SDS011;22639;42.690;23.356;2022-09-03T09:32:16;5.68;;;5.18;;
36391;SDS011;22639;42.690;23.356;2022-09-03T09:34:43;5.13;;;4.68;;
36391;SDS011;22639;42.690;23.356;2022-09-03T09:37:10;5.57;;;5.07;;
36391;SDS011;22639;42.690;23.356;2022-09-03T09:39:38;5.70;;;5.22;;
36391;SDS011;22639;42.690;23.356;2022-09-03T09:42:06;6.47;;;5.88;;
36391;SDS011;22639;42.690;23.356;2022-09-03T09:44:37;5.63;;;5.00;;
36391;SDS011;22639;42.690;23.356;2022-09-03T09:47:06;6.25;;;5.65;;
36391;SDS011;22639;42.690;23.356;2022-09-03T09:49:36;6.15;;;5.65;;
36391;SDS011;22639;42.690;23.356;2022-09-03T09:52:15;5.82;;;5.32;;
36391;SDS011;22639;42.690;23.356;2022-09-03T09:54:41;5.75;;;5.25;;
36391;SDS011;22639;42.690;23.356;2022-09-03T09:57:17;5.63;;;5.13;;
36391;SDS011;22639;42.690;23.356;2022-09-03T09:59:47;5.28;;;4.72;;
36391;SDS011;22639;42.690;23.356;2022-09-03T10:02:15;5.70;;;5.13;;
36391;SDS011;22639;42.690;23.356;2022-09-03T10:04:51;4.90;;;4.40;;
36391;SDS011;22639;42.690;23.356;2022-09-03T10:07:22;5.90;;;4.50;;
36391;SDS011;22639;42.690;23.356;2022-09-03T10:09:57;5.20;;;4.80;;
36391;SDS011;22639;42.690;23.356;2022-09-03T10:12:29;4.82;;;4.43;;
36391;SDS011;22639;42.690;23.356;2022-09-03T10:20:21;6.05;;;5.55;;
36391;SDS011;22639;42.690;23.356;2022-09-03T10:23:06;5.03;;;4.72;;
36391;SDS011;22639;42.690;23.356;2022-09-03T10:28:24;5.35;;;4.85;;
36391;SDS011;22639;42.690;23.356;2022-09-03T10:34:05;5.53;;;5.03;;
36391;SDS011;22639;42.690;23.356;2022-09-03T10:36:46;5.15;;;4.75;;
36391;SDS011;22639;42.690;23.356;2022-09-03T10:39:42;5.05;;;4.68;;
36391;SDS011;22639;42.690;23.356;2022-09-03T10:50:24;5.40;;;4.90;;
36391;SDS011;22639;42.690;23.356;2022-09-03T10:56:00;5.47;;;4.97;;
36391;SDS011;22639;42.690;23.356;2022-09-03T11:03:52;4.70;;;4.40;;
36391;SDS011;22639;42.690;23.356;2022-09-03T11:06:32;5.03;;;4.63;;
36391;SDS011;22639;42.690;23.356;2022-09-03T11:11:33;4.55;;;4.20;;
36391;SDS011;22639;42.690;23.356;2022-09-03T11:14:09;4.55;;;4.15;;
36391;SDS011;22639;42.690;23.356;2022-09-03T11:16:58;4.95;;;4.55;;
36391;SDS011;22639;42.690;23.356;2022-09-03T11:19:47;4.78;;;4.38;;
36391;SDS011;22639;42.690;23.356;2022-09-03T11:22:17;5.03;;;4.70;;
36391;SDS011;22639;42.690;23.356;2022-09-03T11:24:49;5.38;;;4.88;;
36391;SDS011;22639;42.690;23.356;2022-09-03T11:29:58;3.90;;;3.60;;
36391;SDS011;22639;42.690;23.356;2022-09-03T11:35:12;4.88;;;4.40;;
36391;SDS011;22639;42.690;23.356;2022-09-03T11:37:52;4.47;;;4.07;;
36391;SDS011;22639;42.690;23.356;2022-09-03T11:40:31;5.18;;;4.78;;
36391;SDS011;22639;42.690;23.356;2022-09-03T11:46:00;5.80;;;5.30;;
36391;SDS011;22639;42.690;23.356;2022-09-03T11:51:16;6.38;;;5.75;;
36391;SDS011;22639;42.690;23.356;2022-09-03T11:56:49;5.72;;;5.22;;
36391;SDS011;22639;42.690;23.356;2022-09-03T11:59:21;6.93;;;5.53;;
36391;SDS011;22639;42.690;23.356;2022-09-03T12:01:55;5.57;;;5.07;;
36391;SDS011;22639;42.690;23.356;2022-09-03T12:04:49;6.20;;;5.65;;
36391;SDS011;22639;42.690;23.356;2022-09-03T12:13:07;5.97;;;5.40;;
36391;SDS011;22639;42.690;23.356;2022-09-03T12:18:38;5.72;;;5.22;;
36391;SDS011;22639;42.690;23.356;2022-09-03T12:21:07;6.30;;;5.70;;
36391;SDS011;22639;42.690;23.356;2022-09-03T12:23:47;6.38;;;5.50;;
36391;SDS011;22639;42.690;23.356;2022-09-03T12:26:23;5.75;;;5.25;;
36391;SDS011;22639;42.690;23.356;2022-09-03T12:28:55;6.22;;;5.68;;
36391;SDS011;22639;42.690;23.356;2022-09-03T12:31:31;6.32;;;5.82;;
36391;SDS011;22639;42.690;23.356;2022-09-03T12:34:12;5.93;;;5.32;;
36391;SDS011;22639;42.690;23.356;2022-09-03T12:36:49;6.28;;;5.68;;
36391;SDS011;22639;42.690;23.356;2022-09-03T12:39:20;5.00;;;4.60;;
36391;SDS011;22639;42.690;23.356;2022-09-03T12:44:28;6.72;;;6.13;;
36391;SDS011;22639;42.690;23.356;2022-09-03T12:47:21;6.47;;;5.88;;
36391;SDS011;22639;42.690;23.356;2022-09-03T12:49:55;7.57;;;5.72;;
36391;SDS011;22639;42.690;23.356;2022-09-03T12:57:24;6.05;;;5.55;;
36391;SDS011;22639;42.690;23.356;2022-09-03T12:59:57;5.60;;;5.10;;
36391;SDS011;22639;42.690;23.356;2022-09-03T13:02:28;6.80;;;5.68;;
36391;SDS011;22639;42.690;23.356;2022-09-03T13:05:02;5.15;;;4.65;;
36391;SDS011;22639;42.690;23.356;2022-09-03T13:07:33;3.88;;;3.58;;
36391;SDS011;22639;42.690;23.356;2022-09-03T13:10:04;3.28;;;2.97;;
36391;SDS011;22639;42.690;23.356;2022-09-03T13:12:45;4.70;;;4.30;;
36391;SDS011;22639;42.690;23.356;2022-09-03T13:15:21;6.13;;;4.88;;
36391;SDS011;22639;42.690;23.356;2022-09-03T13:33:48;4.45;;;4.05;;
36391;SDS011;22639;42.690;23.356;2022-09-03T13:36:42;5.53;;;4.15;;
36391;SDS011;22639;42.690;23.356;2022-09-03T13:40:15;4.43;;;4.03;;
36391;SDS011;22639;42.690;23.356;2022-09-03T13:42:50;4.53;;;4.13;;
36391;SDS011;22639;42.690;23.356;2022-09-03T13:45:30;3.97;;;3.58;;
36391;SDS011;22639;42.690;23.356;2022-09-03T13:54:14;4.40;;;3.75;;
36391;SDS011;22639;42.690;23.356;2022-09-03T14:02:18;3.50;;;3.20;;
36391;SDS011;22639;42.690;23.356;2022-09-03T14:10:48;5.45;;;3.33;;
36391;SDS011;22639;42.690;23.356;2022-09-03T14:13:37;3.50;;;3.15;;
36391;SDS011;22639;42.690;23.356;2022-09-03T14:16:06;3.70;;;3.28;;
36391;SDS011;22639;42.690;23.356;2022-09-03T14:21:21;5.80;;;4.57;;
36391;SDS011;22639;42.690;23.356;2022-09-03T14:24:11;5.40;;;3.70;;
36391;SDS011;22639;42.690;23.356;2022-09-03T14:26:48;5.05;;;4.53;;
36391;SDS011;22639;42.690;23.356;2022-09-03T14:29:16;3.63;;;3.33;;
36391;SDS011;22639;42.690;23.356;2022-09-03T14:40:20;5.97;;;5.03;;
36391;SDS011;22639;42.690;23.356;2022-09-03T14:48:43;5.00;;;4.50;;
36391;SDS011;22639;42.690;23.356;2022-09-03T15:11:20;4.78;;;4.10;;
36391;SDS011;22639;42.690;23.356;2022-09-03T15:30:31;4.97;;;4.47;;
36391;SDS011;22639;42.690;23.356;2022-09-03T15:41:33;6.82;;;6.13;;
36391;SDS011;22639;42.690;23.356;2022-09-03T15:44:13;5.25;;;4.75;;
36391;SDS011;22639;42.690;23.356;2022-09-03T15:46:46;8.20;;;7.50;;
36391;SDS011;22639;42.690;23.356;2022-09-03T15:57:16;6.43;;;5.82;;
36391;SDS011;22639;42.690;23.356;2022-09-03T16:00:00;7.50;;;6.80;;
36391;SDS011;22639;42.690;23.356;2022-09-03T16:02:31;8.85;;;7.50;;
36391;SDS011;22639;42.690;23.356;2022-09-03T16:10:40;7.25;;;6.35;;
36391;SDS011;22639;42.690;23.356;2022-09-03T16:15:50;8.63;;;7.00;;
36391;SDS011;22639;42.690;23.356;2022-09-03T16:18:26;8.15;;;7.10;;
36391;SDS011;22639;42.690;23.356;2022-09-03T16:23:45;8.00;;;7.20;;
36391;SDS011;22639;42.690;23.356;2022-09-03T16:26:19;7.63;;;6.93;;
36391;SDS011;22639;42.690;23.356;2022-09-03T16:28:54;8.98;;;8.02;;
36391;SDS011;22639;42.690;23.356;2022-09-03T16:31:31;8.30;;;7.50;;
36391;SDS011;22639;42.690;23.356;2022-09-03T16:34:12;9.05;;;8.10;;
36391;SDS011;22639;42.690;23.356;2022-09-03T16:39:50;7.80;;;6.78;;
36391;SDS011;22639;42.690;23.356;2022-09-03T16:53:56;8.63;;;7.65;;
36391;SDS011;22639;42.690;23.356;2022-09-03T16:56:47;8.48;;;6.93;;
36391;SDS011;22639;42.690;23.356;2022-09-03T17:10:43;10.18;;;8.10;;
36391;SDS011;22639;42.690;23.356;2022-09-03T17:24:56;9.60;;;7.80;;
36391;SDS011;22639;42.690;23.356;2022-09-03T17:27:45;9.65;;;8.68;;
36391;SDS011;22639;42.690;23.356;2022-09-03T17:30:48;10.63;;;9.05;;
36391;SDS011;22639;42.690;23.356;2022-09-03T17:36:22;9.25;;;8.35;;
36391;SDS011;22639;42.690;23.356;2022-09-03T17:41:39;9.45;;;8.23;;
36391;SDS011;22639;42.690;23.356;2022-09-03T17:44:14;9.93;;;8.73;;
36391;SDS011;22639;42.690;23.356;2022-09-03T17:49:26;7.85;;;6.97;;
36391;SDS011;22639;42.690;23.356;2022-09-03T17:55:15;8.55;;;7.65;;
36391;SDS011;22639;42.690;23.356;2022-09-03T17:57:51;8.25;;;7.30;;
36391;SDS011;22639;42.690;23.356;2022-09-03T18:00:27;9.15;;;8.27;;
36391;SDS011;22639;42.690;23.356;2022-09-03T18:03:01;9.10;;;7.53;;
36391;SDS011;22639;42.690;23.356;2022-09-03T18:11:36;9.38;;;7.45;;
36391;SDS011;22639;42.690;23.356;2022-09-03T18:16:33;9.48;;;8.43;;
36391;SDS011;22639;42.690;23.356;2022-09-03T18:22:27;8.75;;;7.85;;
36391;SDS011;22639;42.690;23.356;2022-09-03T18:25:27;9.95;;;7.97;;
36391;SDS011;22639;42.690;23.356;2022-09-03T18:28:13;8.88;;;8.07;;
36391;SDS011;22639;42.690;23.356;2022-09-03T18:31:01;9.95;;;8.52;;
36391;SDS011;22639;42.690;23.356;2022-09-03T18:33:45;10.63;;;7.95;;
36391;SDS011;22639;42.690;23.356;2022-09-03T18:36:29;9.02;;;8.10;;
36391;SDS011;22639;42.690;23.356;2022-09-03T18:39:15;11.27;;;8.80;;
36391;SDS011;22639;42.690;23.356;2022-09-03T19:00:40;11.07;;;9.00;;
36391;SDS011;22639;42.690;23.356;2022-09-03T19:04:04;9.60;;;8.48;;
36391;SDS011;22639;42.690;23.356;2022-09-03T19:10:23;11.75;;;9.23;;
36391;SDS011;22639;42.690;23.356;2022-09-03T19:13:22;10.00;;;9.02;;
36391;SDS011;22639;42.690;23.356;2022-09-03T19:16:17;10.27;;;9.15;;
36391;SDS011;22639;42.690;23.356;2022-09-03T19:22:03;14.55;;;12.00;;
36391;SDS011;22639;42.690;23.356;2022-09-03T19:25:01;25.70;;;18.25;;
36391;SDS011;22639;42.690;23.356;2022-09-03T19:43:11;18.58;;;13.55;;
36391;SDS011;22639;42.690;23.356;2022-09-03T19:54:53;13.80;;;10.43;;
36391;SDS011;22639;42.690;23.356;2022-09-03T19:57:40;14.38;;;10.40;;
36391;SDS011;22639;42.690;23.356;2022-09-03T20:00:26;14.57;;;11.00;;
36391;SDS011;22639;42.690;23.356;2022-09-03T20:03:12;17.55;;;12.27;;
36391;SDS011;22639;42.690;23.356;2022-09-03T20:05:56;16.75;;;13.35;;
36391;SDS011;22639;42.690;23.356;2022-09-03T20:08:42;15.30;;;13.38;;
36391;SDS011;22639;42.690;23.356;2022-09-03T20:11:27;19.23;;;14.25;;
36391;SDS011;22639;42.690;23.356;2022-09-03T20:13:55;19.50;;;14.32;;
36391;SDS011;22639;42.690;23.356;2022-09-03T20:17:00;15.50;;;12.45;;
36391;SDS011;22639;42.690;23.356;2022-09-03T20:30:15;13.30;;;11.20;;
36391;SDS011;22639;42.690;23.356;2022-09-03T20:37:57;13.55;;;10.38;;
36391;SDS011;22639;42.690;23.356;2022-09-03T20:49:57;11.55;;;10.35;;
36391;SDS011;22639;42.690;23.356;2022-09-03T20:54:36;11.48;;;10.27;;
36391;SDS011;22639;42.690;23.356;2022-09-03T20:57:17;11.75;;;9.57;;
36391;SDS011;22639;42.690;23.356;2022-09-03T21:10:23;20.98;;;10.68;;
36391;SDS011;22639;42.690;23.356;2022-09-03T21:13:19;12.73;;;9.98;;
36391;SDS011;22639;42.690;23.356;2022-09-03T21:24:33;11.70;;;9.63;;
36391;SDS011;22639;42.690;23.356;2022-09-03T21:27:05;12.48;;;11.15;;
36391;SDS011;22639;42.690;23.356;2022-09-03T21:29:38;10.23;;;9.15;;
36391;SDS011;22639;42.690;23.356;2022-09-03T21:32:16;11.80;;;10.10;;
36391;SDS011;22639;42.690;23.356;2022-09-03T21:35:02;10.38;;;9.00;;
36391;SDS011;22639;42.690;23.356;2022-09-03T21:37:35;9.88;;;8.40;;
36391;SDS011;22639;42.690;23.356;2022-09-03T21:40:03;11.07;;;9.98;;
36391;SDS011;22639;42.690;23.356;2022-09-03T21:42:33;11.23;;;8.80;;
36391;SDS011;22639;42.690;23.356;2022-09-03T21:47:59;11.90;;;10.50;;
36391;SDS011;22639;42.690;23.356;2022-09-03T21:51:13;12.15;;;9.73;;
36391;SDS011;22639;42.690;23.356;2022-09-03T22:00:58;10.68;;;9.60;;
36391;SDS011;22639;42.690;23.356;2022-09-03T22:03:30;11.73;;;10.52;;
36391;SDS011;22639;42.690;23.356;2022-09-03T22:06:02;11.18;;;9.73;;
36391;SDS011;22639;42.690;23.356;2022-09-03T22:08:38;10.75;;;9.65;;
36391;SDS011;22639;42.690;23.356;2022-09-03T22:11:15;12.80;;;11.10;;
36391;SDS011;22639;42.690;23.356;2022-09-03T22:14:09;11.07;;;9.88;;
36391;SDS011;22639;42.690;23.356;2022-09-03T22:19:34;13.45;;;11.55;;